Time;durP1;ratioP1;P1;durP2;ratioP2;P2;SDS_P1;SDS_P2;PMS_P1;PMS_P2;Temp;Humidity;BMP_temperature;BMP_pressure;BME280_temperature;BME280_humidity;BME280_pressure;Samples;Min_cycle;Max_cycle;Signal;HPM_P1;HPM_P2
2022/08/15 00:02:32;0.00;0.00;0.62;0.00;0.00;0.62;10.07;9.27;;;32.30;27.40;;;;;;2262024;61;20381;-64
2022/08/15 00:05:22;0.00;0.00;0.62;0.00;0.00;0.62;10.77;9.43;;;32.20;27.30;;;;;;2261097;61;20474;-62
2022/08/15 00:08:07;0.00;0.00;0.62;0.00;0.00;0.62;10.80;9.90;;;32.20;27.30;;;;;;2261911;61;20365;-63
2022/08/15 00:10:53;0.00;0.00;0.62;0.00;0.00;0.62;10.50;9.50;;;32.20;27.30;;;;;;2261433;61;20361;-62
2022/08/15 00:13:39;0.00;0.00;0.62;0.00;0.00;0.62;10.67;9.77;;;32.20;27.20;;;;;;2261492;61;20362;-60
2022/08/15 00:16:27;0.00;0.00;0.62;0.00;0.00;0.62;10.30;9.30;;;32.20;27.20;;;;;;2261835;61;20383;-60
2022/08/15 00:19:15;0.00;0.00;0.62;0.00;0.00;0.62;10.53;9.70;;;32.20;27.20;;;;;;2260881;61;20354;-62
2022/08/15 00:22:07;0.00;0.00;0.62;0.00;0.00;0.62;9.60;8.80;;;32.20;27.20;;;;;;2261878;61;20750;-60
2022/08/15 00:24:52;0.00;0.00;0.62;0.00;0.00;0.62;9.43;8.63;;;32.10;27.20;;;;;;2261819;61;20465;-60
2022/08/15 00:27:37;0.00;0.00;0.62;0.00;0.00;0.62;9.77;8.90;;;32.10;27.10;;;;;;2260968;61;20362;-62
2022/08/15 00:30:22;0.00;0.00;0.62;0.00;0.00;0.62;11.17;10.27;;;32.10;27.10;;;;;;2261914;61;20638;-61
2022/08/15 00:33:07;0.00;0.00;0.62;0.00;0.00;0.62;10.37;9.47;;;32.10;27.10;;;;;;2261074;61;20600;-62
2022/08/15 00:35:52;0.00;0.00;0.62;0.00;0.00;0.62;9.93;9.13;;;32.10;27.10;;;;;;2261402;61;20460;-62
2022/08/15 00:38:38;0.00;0.00;0.62;0.00;0.00;0.62;10.17;9.37;;;32.10;27.10;;;;;;2261776;61;20469;-60
2022/08/15 00:41:41;0.00;0.00;0.62;0.00;0.00;0.62;10.87;9.90;;;32.10;27.10;;;;;;2260854;61;20378;-59
2022/08/15 00:44:32;0.00;0.00;0.62;0.00;0.00;0.62;9.20;8.40;;;32.10;27.10;;;;;;2261450;61;20353;-60
2022/08/15 00:47:22;0.00;0.00;0.62;0.00;0.00;0.62;12.30;11.20;;;32.10;27.20;;;;;;2260832;61;20362;-61
2022/08/15 00:50:09;0.00;0.00;0.62;0.00;0.00;0.62;11.83;10.73;;;32.00;27.20;;;;;;2260657;61;20357;-60
2022/08/15 00:52:54;0.00;0.00;0.62;0.00;0.00;0.62;10.47;9.57;;;31.90;27.20;;;;;;2261806;61;20691;-60
2022/08/15 00:55:44;0.00;0.00;0.62;0.00;0.00;0.62;10.40;9.43;;;31.90;27.20;;;;;;2260400;61;20650;-61
2022/08/15 00:58:29;0.00;0.00;0.62;0.00;0.00;0.62;11.07;10.17;;;31.80;27.20;;;;;;2263367;61;20477;-61
2022/08/15 01:01:15;0.00;0.00;0.62;0.00;0.00;0.62;11.13;10.13;;;31.80;27.30;;;;;;2261628;61;20769;-60
2022/08/15 01:04:00;0.00;0.00;0.62;0.00;0.00;0.62;11.03;10.03;;;31.70;27.30;;;;;;2260302;61;20389;-60
2022/08/15 01:06:46;0.00;0.00;0.62;0.00;0.00;0.62;10.07;9.23;;;31.70;27.40;;;;;;2261832;61;20401;-61
2022/08/15 01:09:32;0.00;0.00;0.62;0.00;0.00;0.62;10.70;9.80;;;31.60;27.40;;;;;;2261950;61;20357;-61
2022/08/15 01:12:22;0.00;0.00;0.62;0.00;0.00;0.62;10.80;9.80;;;31.60;27.40;;;;;;2261260;61;20393;-61
2022/08/15 01:15:15;0.00;0.00;0.62;0.00;0.00;0.62;9.43;8.63;;;31.60;27.50;;;;;;2262222;61;20496;-61
2022/08/15 01:18:00;0.00;0.00;0.62;0.00;0.00;0.62;9.80;8.90;;;31.60;27.60;;;;;;2261268;61;20385;-60
2022/08/15 01:20:46;0.00;0.00;0.62;0.00;0.00;0.62;10.83;9.93;;;31.60;27.60;;;;;;2261752;61;20585;-61
2022/08/15 01:23:44;0.00;0.00;0.62;0.00;0.00;0.62;10.63;9.73;;;31.50;27.60;;;;;;2261784;61;20666;-61
2022/08/15 01:26:31;0.00;0.00;0.62;0.00;0.00;0.62;10.77;9.87;;;31.50;27.70;;;;;;2260823;61;20566;-60
2022/08/15 01:29:17;0.00;0.00;0.62;0.00;0.00;0.62;10.10;9.30;;;31.50;27.70;;;;;;2262340;61;20366;-59
2022/08/15 01:32:03;0.00;0.00;0.62;0.00;0.00;0.62;10.10;9.20;;;31.50;27.70;;;;;;2261538;61;20606;-60
2022/08/15 01:34:49;0.00;0.00;0.62;0.00;0.00;0.62;10.13;9.23;;;31.50;27.80;;;;;;2261609;61;20366;-61
2022/08/15 01:37:35;0.00;0.00;0.62;0.00;0.00;0.62;10.97;9.97;;;31.50;27.80;;;;;;2261805;61;20436;-60
2022/08/15 01:40:30;0.00;0.00;0.62;0.00;0.00;0.62;9.80;9.00;;;31.40;27.80;;;;;;2261378;61;20412;-61
2022/08/15 01:43:22;0.00;0.00;0.62;0.00;0.00;0.62;10.27;9.43;;;31.40;27.80;;;;;;2261999;61;20485;-59
2022/08/15 01:46:10;0.00;0.00;0.62;0.00;0.00;0.62;9.70;8.90;;;31.40;27.80;;;;;;2262251;61;20359;-61
2022/08/15 01:49:08;0.00;0.00;0.62;0.00;0.00;0.62;9.90;8.93;;;31.40;27.80;;;;;;2261563;61;20353;-59
2022/08/15 01:51:58;0.00;0.00;0.62;0.00;0.00;0.62;9.77;8.97;;;31.40;27.90;;;;;;2262260;61;20709;-61
2022/08/15 01:54:45;0.00;0.00;0.62;0.00;0.00;0.62;10.43;9.53;;;31.40;27.80;;;;;;2261059;61;20366;-60
2022/08/15 01:57:32;0.00;0.00;0.62;0.00;0.00;0.62;11.40;10.40;;;31.40;27.80;;;;;;2262770;61;20392;-61
2022/08/15 02:00:20;0.00;0.00;0.62;0.00;0.00;0.62;10.77;9.87;;;31.30;27.80;;;;;;2264013;61;20374;-60
2022/08/15 02:03:05;0.00;0.00;0.62;0.00;0.00;0.62;11.67;10.27;;;31.30;27.90;;;;;;2261315;61;20385;-61
2022/08/15 02:05:50;0.00;0.00;0.62;0.00;0.00;0.62;10.83;10.00;;;31.30;27.90;;;;;;2262137;61;20381;-60
2022/08/15 02:08:34;0.00;0.00;0.62;0.00;0.00;0.62;11.87;10.77;;;31.20;28.20;;;;;;2261848;61;20409;-61
2022/08/15 02:11:24;0.00;0.00;0.62;0.00;0.00;0.62;10.90;10.00;;;31.10;28.40;;;;;;2260933;61;20417;-61
2022/08/15 02:14:11;0.00;0.00;0.62;0.00;0.00;0.62;10.03;9.13;;;31.00;28.70;;;;;;2261872;61;20440;-60
2022/08/15 02:16:57;0.00;0.00;0.62;0.00;0.00;0.62;11.50;10.00;;;30.80;28.80;;;;;;2261398;61;20386;-61
2022/08/15 02:19:49;0.00;0.00;0.62;0.00;0.00;0.62;10.27;9.47;;;30.70;28.90;;;;;;2261596;61;20429;-61
2022/08/15 02:22:34;0.00;0.00;0.62;0.00;0.00;0.62;10.33;9.43;;;30.50;28.90;;;;;;2264603;61;20498;-61
2022/08/15 02:25:19;0.00;0.00;0.62;0.00;0.00;0.62;10.97;10.07;;;30.50;29.00;;;;;;2260767;61;20392;-61
2022/08/15 02:28:05;0.00;0.00;0.62;0.00;0.00;0.62;10.37;9.33;;;30.40;29.10;;;;;;2264389;61;20349;-59
2022/08/15 02:30:51;0.00;0.00;0.62;0.00;0.00;0.62;10.50;9.40;;;30.50;29.10;;;;;;2261982;61;20786;-61
2022/08/15 02:33:38;0.00;0.00;0.62;0.00;0.00;0.62;9.90;9.10;;;30.40;29.10;;;;;;2261416;61;20366;-61
2022/08/15 02:36:24;0.00;0.00;0.62;0.00;0.00;0.62;10.67;9.70;;;30.50;29.20;;;;;;2264397;61;20741;-61
2022/08/15 02:39:10;0.00;0.00;0.62;0.00;0.00;0.62;10.67;9.60;;;30.50;29.30;;;;;;2260822;61;20390;-61
2022/08/15 02:41:57;0.00;0.00;0.62;0.00;0.00;0.62;9.47;8.67;;;30.50;29.40;;;;;;2264135;61;20382;-61
2022/08/15 02:44:43;0.00;0.00;0.62;0.00;0.00;0.62;9.20;8.40;;;30.50;29.30;;;;;;2261674;61;20401;-61
2022/08/15 02:47:30;0.00;0.00;0.62;0.00;0.00;0.62;11.07;10.17;;;30.50;29.20;;;;;;2261093;61;20362;-59
2022/08/15 02:50:21;0.00;0.00;0.62;0.00;0.00;0.62;9.83;8.93;;;30.50;29.20;;;;;;2261726;61;20404;-60
2022/08/15 02:53:10;0.00;0.00;0.62;0.00;0.00;0.62;10.77;9.90;;;30.50;29.30;;;;;;2261210;61;20382;-60
2022/08/15 02:55:55;0.00;0.00;0.62;0.00;0.00;0.62;10.30;9.50;;;30.50;29.20;;;;;;2260877;61;20604;-59
2022/08/15 02:58:41;0.00;0.00;0.62;0.00;0.00;0.62;9.70;8.90;;;30.50;29.20;;;;;;2264277;61;20438;-61
2022/08/15 03:01:28;0.00;0.00;0.62;0.00;0.00;0.62;10.53;9.63;;;30.50;29.20;;;;;;2264748;61;20403;-61
2022/08/15 03:04:19;0.00;0.00;0.62;0.00;0.00;0.62;11.37;10.37;;;30.50;29.10;;;;;;2265452;61;20726;-60
2022/08/15 03:07:06;0.00;0.00;0.62;0.00;0.00;0.62;11.13;10.13;;;30.50;29.20;;;;;;2265484;61;20384;-60
2022/08/15 03:09:51;0.00;0.00;0.62;0.00;0.00;0.62;11.07;10.17;;;30.50;29.20;;;;;;2264433;61;20365;-60
2022/08/15 03:12:50;0.00;0.00;0.62;0.00;0.00;0.62;10.57;9.57;;;30.50;29.10;;;;;;2265657;61;20428;-60
2022/08/15 03:15:42;0.00;0.00;0.62;0.00;0.00;0.62;11.90;10.80;;;30.50;29.10;;;;;;2265197;61;20415;-60
2022/08/15 03:18:32;0.00;0.00;0.62;0.00;0.00;0.62;9.57;8.77;;;30.50;29.10;;;;;;2265393;61;20431;-61
2022/08/15 03:21:19;0.00;0.00;0.62;0.00;0.00;0.62;10.90;9.90;;;30.50;29.00;;;;;;2265529;61;20596;-59
2022/08/15 03:24:07;0.00;0.00;0.62;0.00;0.00;0.62;10.60;9.60;;;30.50;29.10;;;;;;2264891;61;20392;-60
2022/08/15 03:26:52;0.00;0.00;0.62;0.00;0.00;0.62;12.37;10.40;;;30.50;29.20;;;;;;2265387;61;20428;-60
2022/08/15 03:29:37;0.00;0.00;0.62;0.00;0.00;0.62;12.20;11.00;;;30.50;29.40;;;;;;2265423;61;20438;-61
2022/08/15 03:32:22;0.00;0.00;0.62;0.00;0.00;0.62;11.60;10.60;;;30.40;29.40;;;;;;2264484;61;20420;-61
2022/08/15 03:35:09;0.00;0.00;0.62;0.00;0.00;0.62;9.63;8.80;;;30.40;29.40;;;;;;2265591;61;20361;-61
2022/08/15 03:37:54;0.00;0.00;0.62;0.00;0.00;0.62;9.30;8.50;;;30.40;29.40;;;;;;2265107;61;20392;-60
2022/08/15 03:40:44;0.00;0.00;0.62;0.00;0.00;0.62;10.33;9.43;;;30.30;29.30;;;;;;2265184;61;20406;-61
2022/08/15 03:43:30;0.00;0.00;0.62;0.00;0.00;0.62;10.17;9.37;;;30.30;29.30;;;;;;2266041;61;20393;-60
2022/08/15 03:46:19;0.00;0.00;0.62;0.00;0.00;0.62;10.33;9.53;;;30.30;29.20;;;;;;2264622;61;20411;-61
2022/08/15 03:49:06;0.00;0.00;0.62;0.00;0.00;0.62;9.57;8.77;;;30.30;29.20;;;;;;2265721;61;20381;-60
2022/08/15 03:51:55;0.00;0.00;0.62;0.00;0.00;0.62;10.20;9.40;;;30.40;29.30;;;;;;2265436;61;20420;-60
2022/08/15 03:54:40;0.00;0.00;0.62;0.00;0.00;0.62;10.50;9.60;;;30.40;29.30;;;;;;2264718;61;20439;-61
2022/08/15 03:57:27;0.00;0.00;0.62;0.00;0.00;0.62;9.70;8.90;;;30.40;29.30;;;;;;2265413;61;20392;-61
2022/08/15 04:00:15;0.00;0.00;0.62;0.00;0.00;0.62;13.30;9.80;;;30.40;29.30;;;;;;2261519;61;20385;-60
2022/08/15 04:03:08;0.00;0.00;0.62;0.00;0.00;0.62;11.00;10.00;;;30.40;29.40;;;;;;2261483;61;20374;-60
2022/08/15 04:05:59;0.00;0.00;0.62;0.00;0.00;0.62;11.93;10.83;;;30.40;29.40;;;;;;2264146;61;20389;-61
2022/08/15 04:08:47;0.00;0.00;0.62;0.00;0.00;0.62;11.30;10.30;;;30.40;30.00;;;;;;2263403;61;20714;-61
2022/08/15 04:11:32;0.00;0.00;0.62;0.00;0.00;0.62;10.00;9.10;;;30.40;29.50;;;;;;2264127;61;20413;-62
2022/08/15 04:14:19;0.00;0.00;0.62;0.00;0.00;0.62;9.40;8.60;;;30.40;29.40;;;;;;2261408;61;20362;-60
2022/08/15 04:17:06;0.00;0.00;0.62;0.00;0.00;0.62;11.30;10.20;;;30.40;29.40;;;;;;2260569;61;20862;-61
2022/08/15 04:19:51;0.00;0.00;0.62;0.00;0.00;0.62;10.90;9.90;;;30.40;29.30;;;;;;2264168;61;20378;-60
2022/08/15 04:22:43;0.00;0.00;0.62;0.00;0.00;0.62;10.20;9.20;;;30.40;29.30;;;;;;2260482;61;20446;-61
2022/08/15 04:25:35;0.00;0.00;0.62;0.00;0.00;0.62;10.47;9.67;;;30.40;29.20;;;;;;2261153;61;20745;-61
2022/08/15 04:28:23;0.00;0.00;0.62;0.00;0.00;0.62;11.03;10.07;;;30.40;29.30;;;;;;2261953;61;20354;-60
2022/08/15 04:31:14;0.00;0.00;0.62;0.00;0.00;0.62;9.60;8.90;;;30.40;29.30;;;;;;2260686;61;20358;-60
2022/08/15 04:34:03;0.00;0.00;0.62;0.00;0.00;0.62;10.57;9.67;;;30.40;29.30;;;;;;2261475;61;20599;-61
2022/08/15 04:36:49;0.00;0.00;0.62;0.00;0.00;0.62;11.20;10.20;;;30.40;29.20;;;;;;2263602;61;20421;-60
2022/08/15 04:39:34;0.00;0.00;0.62;0.00;0.00;0.62;11.70;10.77;;;30.40;29.20;;;;;;2263395;61;20434;-62
2022/08/15 04:42:26;0.00;0.00;0.62;0.00;0.00;0.62;9.60;8.77;;;30.50;29.30;;;;;;2259258;61;20420;-61
2022/08/15 04:45:12;0.00;0.00;0.62;0.00;0.00;0.62;9.37;8.57;;;30.40;29.20;;;;;;2261206;61;20719;-60
2022/08/15 04:48:02;0.00;0.00;0.62;0.00;0.00;0.62;11.43;10.53;;;30.40;29.10;;;;;;2261709;61;20346;-61
2022/08/15 04:50:51;0.00;0.00;0.62;0.00;0.00;0.62;10.20;9.40;;;30.40;29.20;;;;;;2262039;61;20400;-61
2022/08/15 04:53:39;0.00;0.00;0.62;0.00;0.00;0.62;12.43;10.70;;;30.40;29.30;;;;;;2260993;61;20757;-60
2022/08/15 04:56:24;0.00;0.00;0.62;0.00;0.00;0.62;11.47;10.43;;;30.40;29.70;;;;;;2264756;61;20405;-60
2022/08/15 04:59:09;0.00;0.00;0.62;0.00;0.00;0.62;11.20;10.20;;;30.40;30.20;;;;;;2491385;45;20372;-60
2022/08/15 05:01:55;0.00;0.00;0.62;0.00;0.00;0.62;11.00;10.10;;;30.40;29.60;;;;;;2261434;61;20378;-61
2022/08/15 05:04:41;0.00;0.00;0.62;0.00;0.00;0.62;10.17;9.27;;;30.30;29.50;;;;;;2262340;61;20426;-60
2022/08/15 05:07:25;0.00;0.00;0.62;0.00;0.00;0.62;10.30;9.40;;;30.30;29.40;;;;;;2261590;61;20361;-61
2022/08/15 05:10:11;0.00;0.00;0.62;0.00;0.00;0.62;11.30;10.23;;;30.30;29.50;;;;;;2261663;61;20393;-59
2022/08/15 05:12:55;0.00;0.00;0.62;0.00;0.00;0.62;11.80;10.60;;;30.30;29.80;;;;;;2261425;61;20396;-60
2022/08/15 05:15:42;0.00;0.00;0.62;0.00;0.00;0.62;11.20;10.30;;;30.30;29.80;;;;;;2261013;61;20761;-60
2022/08/15 05:18:29;0.00;0.00;0.62;0.00;0.00;0.62;17.70;10.57;;;30.20;29.60;;;;;;2261671;61;20729;-60
2022/08/15 05:21:16;0.00;0.00;0.62;0.00;0.00;0.62;10.87;9.80;;;30.20;29.70;;;;;;2262160;61;20362;-59
2022/08/15 05:24:01;0.00;0.00;0.62;0.00;0.00;0.62;11.00;10.00;;;30.20;29.70;;;;;;2261067;61;20369;-61
2022/08/15 05:26:48;0.00;0.00;0.62;0.00;0.00;0.62;11.13;10.13;;;30.20;29.60;;;;;;2261413;61;20355;-60
2022/08/15 05:29:33;0.00;0.00;0.62;0.00;0.00;0.62;10.43;9.20;;;30.20;29.60;;;;;;2261405;61;20361;-59
2022/08/15 05:32:18;0.00;0.00;0.62;0.00;0.00;0.62;11.20;10.23;;;30.20;29.60;;;;;;2261593;61;20409;-59
2022/08/15 05:35:04;0.00;0.00;0.62;0.00;0.00;0.62;10.00;9.20;;;30.20;29.50;;;;;;2261678;61;20358;-61
2022/08/15 05:37:51;0.00;0.00;0.62;0.00;0.00;0.62;9.63;8.77;;;30.20;29.50;;;;;;2261116;61;20393;-59
2022/08/15 05:40:44;0.00;0.00;0.62;0.00;0.00;0.62;11.03;10.03;;;30.20;29.60;;;;;;2261493;61;20366;-59
2022/08/15 05:43:51;0.00;0.00;0.62;0.00;0.00;0.62;10.23;9.10;;;30.10;29.50;;;;;;2262082;61;20385;-59
2022/08/15 05:46:46;0.00;0.00;0.62;0.00;0.00;0.62;12.07;10.77;;;30.10;29.70;;;;;;2261505;61;20397;-60
2022/08/15 05:49:45;0.00;0.00;0.62;0.00;0.00;0.62;10.77;9.80;;;30.10;29.70;;;;;;2261595;61;20365;-59
2022/08/15 05:52:43;0.00;0.00;0.62;0.00;0.00;0.62;12.03;10.60;;;30.00;29.80;;;;;;2260658;61;20378;-59
2022/08/15 05:55:40;0.00;0.00;0.62;0.00;0.00;0.62;11.43;10.23;;;30.00;29.90;;;;;;2261513;61;20405;-59
2022/08/15 05:58:41;0.00;0.00;0.62;0.00;0.00;0.62;10.80;9.80;;;29.90;30.00;;;;;;2263445;61;20506;-58
2022/08/15 06:01:32;0.00;0.00;0.62;0.00;0.00;0.62;11.60;10.50;;;29.70;30.00;;;;;;2261036;61;20439;-59
2022/08/15 06:04:22;0.00;0.00;0.62;0.00;0.00;0.62;10.50;9.47;;;29.60;30.20;;;;;;2261543;61;20576;-60
2022/08/15 06:07:13;0.00;0.00;0.62;0.00;0.00;0.62;10.60;9.50;;;29.40;30.40;;;;;;2260950;61;20474;-60
2022/08/15 06:10:04;0.00;0.00;0.62;0.00;0.00;0.62;10.10;9.17;;;29.30;30.60;;;;;;2261509;61;20355;-59
2022/08/15 06:12:57;0.00;0.00;0.62;0.00;0.00;0.62;10.87;9.80;;;29.20;30.70;;;;;;2261526;61;20398;-59
2022/08/15 06:15:51;0.00;0.00;0.62;0.00;0.00;0.62;10.50;9.37;;;29.10;30.80;;;;;;2260688;61;20366;-60
2022/08/15 06:18:37;0.00;0.00;0.62;0.00;0.00;0.62;9.87;8.97;;;29.10;31.20;;;;;;2261518;61;20431;-59
2022/08/15 06:21:33;0.00;0.00;0.62;0.00;0.00;0.62;18.00;10.17;;;29.00;31.20;;;;;;2261021;61;20651;-59
2022/08/15 06:24:27;0.00;0.00;0.62;0.00;0.00;0.62;10.87;9.87;;;28.90;31.30;;;;;;2263880;61;20362;-59
2022/08/15 06:27:25;0.00;0.00;0.62;0.00;0.00;0.62;11.57;10.40;;;28.90;31.60;;;;;;2261786;61;20355;-60
2022/08/15 06:30:17;0.00;0.00;0.62;0.00;0.00;0.62;11.43;10.00;;;28.80;31.80;;;;;;2263352;61;20358;-60
2022/08/15 06:33:25;0.00;0.00;0.62;0.00;0.00;0.62;10.73;9.63;;;28.70;31.80;;;;;;2264198;61;20774;-59
2022/08/15 06:36:17;0.00;0.00;0.62;0.00;0.00;0.62;10.00;9.13;;;28.70;31.90;;;;;;2260789;61;20412;-59
2022/08/15 06:39:11;0.00;0.00;0.62;0.00;0.00;0.62;10.37;9.37;;;28.70;32.10;;;;;;2261215;61;20358;-59
2022/08/15 06:42:13;0.00;0.00;0.62;0.00;0.00;0.62;11.63;10.43;;;28.60;32.30;;;;;;2261489;61;20454;-59
2022/08/15 06:45:17;0.00;0.00;0.62;0.00;0.00;0.62;13.40;10.40;;;28.50;32.50;;;;;;2260667;61;20366;-60
2022/08/15 06:48:07;0.00;0.00;0.62;0.00;0.00;0.62;11.70;10.10;;;28.50;32.40;;;;;;2261811;61;20408;-61
2022/08/15 06:50:55;0.00;0.00;0.62;0.00;0.00;0.62;9.90;8.97;;;28.40;32.40;;;;;;2261184;61;20652;-60
2022/08/15 06:53:48;0.00;0.00;0.62;0.00;0.00;0.62;10.83;9.90;;;28.40;32.70;;;;;;2261534;61;20404;-70
2022/08/15 06:56:41;0.00;0.00;0.62;0.00;0.00;0.62;16.93;9.70;;;28.30;32.60;;;;;;2261345;61;20385;-67
2022/08/15 06:59:38;0.00;0.00;0.62;0.00;0.00;0.62;11.40;10.00;;;28.40;32.80;;;;;;2420563;45;20379;-70
2022/08/15 07:02:54;0.00;0.00;0.62;0.00;0.00;0.62;10.90;9.83;;;28.40;32.70;;;;;;2261407;61;20424;-70
2022/08/15 07:05:49;0.00;0.00;0.62;0.00;0.00;0.62;9.90;9.00;;;28.40;32.60;;;;;;2260727;61;20741;-64
2022/08/15 07:08:40;0.00;0.00;0.62;0.00;0.00;0.62;10.47;9.40;;;28.50;32.60;;;;;;2259219;61;20405;-66
2022/08/15 07:11:31;0.00;0.00;0.62;0.00;0.00;0.62;10.37;9.37;;;28.60;32.50;;;;;;2261041;61;20660;-66
2022/08/15 07:14:31;0.00;0.00;0.62;0.00;0.00;0.62;10.47;9.57;;;28.60;32.50;;;;;;2264054;61;20416;-65
2022/08/15 07:17:23;0.00;0.00;0.62;0.00;0.00;0.62;12.03;10.93;;;28.70;32.60;;;;;;2265207;61;20389;-67
2022/08/15 07:20:13;0.00;0.00;0.62;0.00;0.00;0.62;11.27;10.00;;;28.70;32.60;;;;;;2319349;58;20589;-67
2022/08/15 07:22:59;0.00;0.00;0.62;0.00;0.00;0.62;10.20;9.23;;;28.80;32.60;;;;;;2269095;61;20384;-68
2022/08/15 07:25:54;0.00;0.00;0.62;0.00;0.00;0.62;9.70;8.80;;;28.90;32.70;;;;;;2268215;61;20380;-70
2022/08/15 07:28:49;0.00;0.00;0.62;0.00;0.00;0.62;9.97;9.07;;;28.90;32.70;;;;;;2265364;61;20721;-71
2022/08/15 07:31:36;0.00;0.00;0.62;0.00;0.00;0.62;11.07;10.07;;;29.00;32.80;;;;;;2265804;61;20381;-64
2022/08/15 07:34:23;0.00;0.00;0.62;0.00;0.00;0.62;10.90;9.90;;;29.00;32.70;;;;;;2265241;61;20365;-67
2022/08/15 07:37:17;0.00;0.00;0.62;0.00;0.00;0.62;10.27;9.27;;;29.10;32.80;;;;;;2264561;61;20394;-66
2022/08/15 07:40:14;0.00;0.00;0.62;0.00;0.00;0.62;9.70;8.90;;;29.10;32.70;;;;;;2265314;61;20412;-65
2022/08/15 07:43:01;0.00;0.00;0.62;0.00;0.00;0.62;11.47;9.40;;;29.20;32.70;;;;;;2264838;61;20456;-62
2022/08/15 07:45:50;0.00;0.00;0.62;0.00;0.00;0.62;10.10;9.10;;;29.20;32.50;;;;;;2264951;61;20364;-61
2022/08/15 07:48:43;0.00;0.00;0.62;0.00;0.00;0.62;9.60;8.80;;;29.30;32.40;;;;;;2265230;61;20357;-63
2022/08/15 07:51:42;0.00;0.00;0.62;0.00;0.00;0.62;9.40;8.60;;;29.30;32.30;;;;;;2264473;61;20797;-63
2022/08/15 07:54:48;0.00;0.00;0.62;0.00;0.00;0.62;10.60;9.60;;;29.40;32.40;;;;;;2265210;61;20392;-64
2022/08/15 07:57:37;0.00;0.00;0.62;0.00;0.00;0.62;10.13;9.23;;;29.40;32.30;;;;;;2264724;61;20548;-65
2022/08/15 08:00:27;0.00;0.00;0.62;0.00;0.00;0.62;11.20;9.90;;;29.40;32.30;;;;;;2313643;58;20364;-76
2022/08/15 08:03:21;0.00;0.00;0.62;0.00;0.00;0.62;10.83;8.83;;;29.40;32.30;;;;;;2265162;61;20419;-68
2022/08/15 08:06:15;0.00;0.00;0.62;0.00;0.00;0.62;11.00;10.00;;;29.50;32.30;;;;;;2264428;61;20453;-65
2022/08/15 08:09:16;0.00;0.00;0.62;0.00;0.00;0.62;9.63;8.93;;;29.50;32.30;;;;;;2265452;61;20674;-65
2022/08/15 08:12:14;0.00;0.00;0.62;0.00;0.00;0.62;10.43;9.53;;;29.50;32.30;;;;;;2264661;61;20385;-63
2022/08/15 08:15:14;0.00;0.00;0.62;0.00;0.00;0.62;10.27;9.47;;;29.60;32.40;;;;;;2264876;61;20365;-63
2022/08/15 08:18:05;0.00;0.00;0.62;0.00;0.00;0.62;10.60;9.60;;;29.60;32.30;;;;;;2265010;61;20376;-63
2022/08/15 08:20:56;0.00;0.00;0.62;0.00;0.00;0.62;11.57;10.40;;;29.60;32.20;;;;;;2264455;61;20365;-69
2022/08/15 08:23:45;0.00;0.00;0.62;0.00;0.00;0.62;10.63;9.53;;;29.60;32.10;;;;;;2265227;61;20356;-70
2022/08/15 08:26:36;0.00;0.00;0.62;0.00;0.00;0.62;9.83;9.00;;;29.70;32.20;;;;;;2265075;61;20352;-68
2022/08/15 08:29:35;0.00;0.00;0.62;0.00;0.00;0.62;10.00;9.00;;;29.70;32.20;;;;;;2264956;61;20373;-69
2022/08/15 08:32:31;0.00;0.00;0.62;0.00;0.00;0.62;10.43;9.43;;;29.70;32.20;;;;;;2265142;61;20387;-61
2022/08/15 08:35:33;0.00;0.00;0.62;0.00;0.00;0.62;11.03;10.03;;;29.70;32.20;;;;;;2265086;61;20362;-72
2022/08/15 08:38:36;0.00;0.00;0.62;0.00;0.00;0.62;9.70;8.70;;;29.80;32.30;;;;;;2265328;61;20392;-70
2022/08/15 08:41:37;0.00;0.00;0.62;0.00;0.00;0.62;9.90;9.00;;;29.80;32.30;;;;;;2265502;61;20357;-71
2022/08/15 08:44:32;0.00;0.00;0.62;0.00;0.00;0.62;11.03;9.80;;;29.80;32.40;;;;;;2265126;61;20424;-67
2022/08/15 08:47:32;0.00;0.00;0.62;0.00;0.00;0.62;8.83;8.13;;;29.80;32.50;;;;;;2265350;61;20354;-62
2022/08/15 08:50:29;0.00;0.00;0.62;0.00;0.00;0.62;10.57;9.77;;;29.90;32.50;;;;;;2264846;61;20400;-63
2022/08/15 08:53:30;0.00;0.00;0.62;0.00;0.00;0.62;9.53;8.30;;;29.90;32.50;;;;;;2265444;61;20450;-64
2022/08/15 08:56:22;0.00;0.00;0.62;0.00;0.00;0.62;9.90;9.10;;;29.90;32.30;;;;;;2265437;61;20470;-63
2022/08/15 08:59:16;0.00;0.00;0.62;0.00;0.00;0.62;9.63;8.47;;;29.90;32.30;;;;;;2262809;61;20373;-66
2022/08/15 09:02:14;0.00;0.00;0.62;0.00;0.00;0.62;10.00;9.10;;;30.00;32.20;;;;;;2261635;61;20734;-70
2022/08/15 09:05:09;0.00;0.00;0.62;0.00;0.00;0.62;10.03;9.10;;;30.00;32.10;;;;;;2260929;61;20370;-63
2022/08/15 09:08:00;0.00;0.00;0.62;0.00;0.00;0.62;8.80;7.90;;;30.10;32.20;;;;;;2261412;61;20647;-67
2022/08/15 09:10:50;0.00;0.00;0.62;0.00;0.00;0.62;9.13;8.43;;;30.10;32.10;;;;;;2261537;61;20361;-65
2022/08/15 09:13:43;0.00;0.00;0.62;0.00;0.00;0.62;9.17;8.30;;;30.10;32.00;;;;;;2260468;61;20606;-68
2022/08/15 09:16:34;0.00;0.00;0.62;0.00;0.00;0.62;10.57;8.97;;;30.20;31.90;;;;;;2265042;61;20372;-65
2022/08/15 09:19:26;0.00;0.00;0.62;0.00;0.00;0.62;9.53;8.73;;;30.20;31.90;;;;;;2265061;61;20357;-63
2022/08/15 09:22:11;0.00;0.00;0.62;0.00;0.00;0.62;9.37;8.67;;;30.30;31.80;;;;;;2265315;61;20761;-63
2022/08/15 09:24:56;0.00;0.00;0.62;0.00;0.00;0.62;9.20;8.30;;;30.30;31.70;;;;;;2265469;61;20364;-70
2022/08/15 09:27:50;0.00;0.00;0.62;0.00;0.00;0.62;9.43;8.63;;;30.40;31.80;;;;;;2264727;61;20713;-68
2022/08/15 09:30:35;0.00;0.00;0.62;0.00;0.00;0.62;10.23;9.33;;;30.40;31.80;;;;;;2266184;61;20635;-69
2022/08/15 09:34:14;0.00;0.00;0.62;0.00;0.00;0.62;9.40;8.70;;;30.50;31.80;;;;;;2265971;61;20381;-64
2022/08/15 09:37:55;0.00;0.00;0.62;0.00;0.00;0.62;9.67;8.83;;;30.50;31.70;;;;;;2253363;61;20807;-62
2022/08/15 09:41:10;0.00;0.00;0.62;0.00;0.00;0.62;10.10;9.20;;;30.60;31.70;;;;;;2263211;61;20384;-63
2022/08/15 09:44:23;0.00;0.00;0.62;0.00;0.00;0.62;9.60;8.70;;;30.60;31.60;;;;;;2265865;61;20364;-69
2022/08/15 09:47:27;0.00;0.00;0.62;0.00;0.00;0.62;9.43;8.63;;;30.70;31.60;;;;;;2266092;61;20717;-70
2022/08/15 09:50:36;0.00;0.00;0.62;0.00;0.00;0.62;9.53;8.70;;;30.70;31.60;;;;;;2265322;61;20475;-67
2022/08/15 09:53:44;0.00;0.00;0.62;0.00;0.00;0.62;9.40;8.70;;;30.70;31.50;;;;;;2266101;61;20377;-71
2022/08/15 09:56:33;0.00;0.00;0.62;0.00;0.00;0.62;9.23;8.53;;;30.80;31.50;;;;;;2265793;61;20373;-68
2022/08/15 09:59:21;0.00;0.00;0.62;0.00;0.00;0.62;9.57;8.77;;;30.80;31.50;;;;;;2460249;45;20382;-66
2022/08/15 10:02:22;0.00;0.00;0.62;0.00;0.00;0.62;10.30;8.90;;;30.80;31.50;;;;;;2261944;61;20732;-62
2022/08/15 10:05:41;0.00;0.00;0.62;0.00;0.00;0.62;10.30;9.40;;;30.90;31.50;;;;;;2261330;61;20354;-70
2022/08/15 10:09:04;0.00;0.00;0.62;0.00;0.00;0.62;9.70;8.80;;;30.90;31.40;;;;;;2261948;61;20618;-65
2022/08/15 10:12:21;0.00;0.00;0.62;0.00;0.00;0.62;9.53;8.73;;;31.00;31.50;;;;;;2261132;61;20812;-67
2022/08/15 10:15:33;0.00;0.00;0.62;0.00;0.00;0.62;9.97;9.07;;;31.00;31.40;;;;;;2262013;61;20361;-61
2022/08/15 10:19:06;0.00;0.00;0.62;0.00;0.00;0.62;10.17;9.37;;;31.10;31.40;;;;;;2261544;61;20420;-70
2022/08/15 10:21:55;0.00;0.00;0.62;0.00;0.00;0.62;11.03;9.93;;;31.20;31.50;;;;;;2261874;61;20389;-68
2022/08/15 10:24:40;0.00;0.00;0.62;0.00;0.00;0.62;12.10;9.70;;;31.20;31.50;;;;;;2263985;61;20373;-65
2022/08/15 10:27:26;0.00;0.00;0.62;0.00;0.00;0.62;8.50;7.90;;;31.20;31.50;;;;;;2518120;53;20434;-63
2022/08/15 10:30:17;0.00;0.00;0.62;0.00;0.00;0.62;10.43;9.63;;;31.20;31.50;;;;;;2264518;61;20484;-64
2022/08/15 10:33:26;0.00;0.00;0.62;0.00;0.00;0.62;8.67;7.97;;;31.30;31.40;;;;;;2265398;61;20423;-64
2022/08/15 10:36:24;0.00;0.00;0.62;0.00;0.00;0.62;8.67;7.87;;;31.30;31.30;;;;;;2265872;61;20392;-66
2022/08/15 10:39:28;0.00;0.00;0.62;0.00;0.00;0.62;9.87;8.87;;;31.40;31.30;;;;;;2265721;61;20356;-65
2022/08/15 10:42:30;0.00;0.00;0.62;0.00;0.00;0.62;9.43;8.60;;;31.40;31.20;;;;;;2265294;61;20472;-67
2022/08/15 10:45:27;0.00;0.00;0.62;0.00;0.00;0.62;8.53;7.83;;;31.40;31.80;;;;;;2265749;61;20393;-65
2022/08/15 10:48:27;0.00;0.00;0.62;0.00;0.00;0.62;9.80;8.90;;;31.50;31.10;;;;;;2265514;61;20579;-65
2022/08/15 10:51:34;0.00;0.00;0.62;0.00;0.00;0.62;8.97;8.27;;;31.60;31.20;;;;;;2265940;61;20633;-68
2022/08/15 10:54:44;0.00;0.00;0.62;0.00;0.00;0.62;8.90;8.10;;;31.60;31.20;;;;;;2265582;61;20530;-66
2022/08/15 10:57:48;0.00;0.00;0.62;0.00;0.00;0.62;8.67;7.90;;;31.60;31.00;;;;;;2265553;61;20454;-60
2022/08/15 11:00:44;0.00;0.00;0.62;0.00;0.00;0.62;8.70;7.90;;;31.60;31.00;;;;;;2497862;53;20385;-62
2022/08/15 11:03:40;0.00;0.00;0.62;0.00;0.00;0.62;9.33;8.63;;;31.70;31.00;;;;;;2261052;61;20382;-61
2022/08/15 11:06:25;0.00;0.00;0.62;0.00;0.00;0.62;9.70;8.80;;;31.70;30.90;;;;;;2261596;61;20733;-62
2022/08/15 11:09:17;0.00;0.00;0.62;0.00;0.00;0.62;9.13;8.33;;;31.80;30.70;;;;;;2261575;61;20598;-61
2022/08/15 11:12:05;0.00;0.00;0.62;0.00;0.00;0.62;9.60;8.70;;;31.80;30.50;;;;;;2261233;61;20430;-63
2022/08/15 11:14:58;0.00;0.00;0.62;0.00;0.00;0.62;9.63;8.83;;;31.80;30.60;;;;;;2261702;61;20446;-62